createdAt,value
2022-08-12T00:00:10.026Z,39.91
2022-08-12T00:02:55.780Z,39.83
2022-08-12T00:05:55.765Z,39.69
2022-08-12T00:08:47.993Z,39.89
2022-08-12T00:11:34.256Z,39.88
2022-08-12T00:14:21.367Z,40.00
2022-08-12T00:17:07.312Z,40.13
2022-08-12T00:19:53.192Z,40.08
2022-08-12T00:22:39.737Z,40.00
2022-08-12T00:26:00.385Z,40.13
2022-08-12T00:28:31.822Z,40.21
2022-08-12T00:31:18.874Z,40.10
2022-08-12T00:34:05.330Z,40.47
2022-08-12T00:36:51.072Z,40.43
2022-08-12T00:39:36.933Z,40.46
2022-08-12T00:42:10.812Z,40.33
2022-08-12T00:44:40.667Z,40.47
2022-08-12T00:47:24.882Z,40.20
2022-08-12T00:49:55.408Z,40.11
2022-08-12T00:52:24.599Z,40.14
2022-08-12T00:54:54.814Z,40.15
2022-08-12T00:57:24.837Z,40.21
2022-08-12T00:59:58.038Z,40.53
2022-08-12T01:02:29.733Z,40.55
2022-08-12T01:05:16.970Z,40.62
2022-08-12T01:08:03.644Z,40.71
2022-08-12T01:10:50.944Z,40.25
2022-08-12T01:13:20.737Z,40.32
2022-08-12T01:15:51.294Z,40.59
2022-08-12T01:18:22.160Z,40.73
2022-08-12T01:20:57.593Z,40.63
2022-08-12T01:23:51.943Z,40.42
2022-08-12T01:26:23.894Z,40.54
2022-08-12T01:28:59.803Z,40.80
2022-08-12T01:31:30.293Z,40.58
2022-08-12T01:34:05.408Z,40.55
2022-08-12T01:36:58.371Z,40.49
2022-08-12T01:39:31.377Z,40.86
2022-08-12T01:42:05.158Z,40.66
2022-08-12T01:44:35.128Z,41.02
2022-08-12T01:47:12.285Z,41.03
2022-08-12T01:49:51.747Z,40.77
2022-08-12T01:52:31.786Z,40.80
2022-08-12T01:55:01.184Z,41.00
2022-08-12T01:57:59.169Z,40.92
2022-08-12T02:00:43.346Z,41.03
2022-08-12T02:03:23.825Z,40.93
2022-08-12T02:06:18.182Z,40.89
2022-08-12T02:09:06.485Z,40.95
2022-08-12T02:11:36.857Z,41.01
2022-08-12T02:14:26.146Z,41.04
2022-08-12T02:17:09.761Z,41.23
2022-08-12T02:20:05.591Z,41.22
2022-08-12T02:22:38.987Z,41.19
2022-08-12T02:25:10.276Z,40.94
2022-08-12T02:27:40.894Z,40.81
2022-08-12T02:30:14.495Z,41.04
2022-08-12T02:32:46.089Z,40.74
2022-08-12T02:35:19.742Z,41.17
2022-08-12T02:37:49.637Z,41.09
2022-08-12T02:40:19.573Z,40.82
2022-08-12T02:42:53.929Z,41.26
2022-08-12T02:45:33.577Z,41.07
2022-08-12T02:48:07.487Z,41.28
2022-08-12T02:50:40.855Z,41.08
2022-08-12T02:53:10.334Z,41.40
2022-08-12T02:55:38.335Z,41.21
2022-08-12T02:58:14.334Z,41.37
2022-08-12T03:00:45.399Z,40.99
2022-08-12T03:03:15.485Z,41.31
2022-08-12T03:05:52.510Z,41.25
2022-08-12T03:08:32.579Z,41.52
2022-08-12T03:11:06.165Z,41.14
2022-08-12T03:13:43.420Z,41.54
2022-08-12T03:16:14.570Z,41.21
2022-08-12T03:18:45.806Z,41.63
2022-08-12T03:21:17.514Z,41.36
2022-08-12T03:24:08.621Z,41.56
2022-08-12T03:26:38.318Z,41.51
2022-08-12T03:29:08.081Z,41.65
2022-08-12T03:31:37.665Z,41.69
2022-08-12T03:34:08.594Z,41.37
2022-08-12T03:36:39.183Z,41.52
2022-08-12T03:39:35.966Z,41.42
2022-08-12T03:42:17.388Z,41.87
2022-08-12T03:45:15.283Z,41.69
2022-08-12T03:48:11.871Z,41.64
2022-08-12T03:51:04.895Z,41.72
2022-08-12T03:53:50.813Z,41.82
2022-08-12T03:56:36.586Z,41.70
2022-08-12T03:59:24.313Z,41.81
2022-08-12T04:01:57.395Z,41.79
2022-08-12T04:04:28.656Z,41.98
2022-08-12T04:06:58.058Z,41.98
2022-08-12T04:09:26.648Z,42.25
2022-08-12T04:12:12.043Z,42.22
2022-08-12T04:14:40.610Z,41.72
2022-08-12T04:17:09.565Z,41.77
2022-08-12T04:19:39.338Z,41.76
2022-08-12T04:22:07.421Z,41.96
2022-08-12T04:24:36.731Z,41.73
2022-08-12T04:27:09.418Z,41.63
2022-08-12T04:30:16.896Z,41.82
2022-08-12T04:32:26.414Z,41.57
2022-08-12T04:34:56.480Z,41.19
2022-08-12T04:37:24.528Z,41.16
2022-08-12T04:39:54.168Z,41.51
2022-08-12T04:42:26.046Z,41.06
2022-08-12T04:44:54.797Z,41.27
2022-08-12T04:47:25.097Z,41.29
2022-08-12T04:49:53.117Z,41.30
2022-08-12T04:52:22.663Z,40.79
2022-08-12T04:54:51.164Z,40.93
2022-08-12T04:57:19.110Z,41.15
2022-08-12T04:59:49.031Z,40.71
2022-08-12T05:02:21.769Z,40.99
2022-08-12T05:04:52.526Z,40.96
2022-08-12T05:07:24.388Z,40.62
2022-08-12T05:10:00.007Z,40.92
2022-08-12T05:12:37.236Z,40.96
2022-08-12T05:15:19.538Z,40.54
2022-08-12T05:17:55.630Z,40.45
2022-08-12T05:20:26.198Z,40.46
2022-08-12T05:23:13.164Z,40.44
2022-08-12T05:25:43.157Z,40.40
2022-08-12T05:28:13.138Z,40.65
2022-08-12T05:30:42.655Z,40.76
2022-08-12T05:33:12.284Z,40.44
2022-08-12T05:35:43.047Z,40.47
2022-08-12T05:38:32.392Z,40.26
2022-08-12T05:41:00.817Z,40.72
2022-08-12T05:43:29.735Z,40.40
2022-08-12T05:45:57.932Z,40.36
2022-08-12T05:48:25.861Z,40.41
2022-08-12T05:50:54.126Z,40.31
2022-08-12T05:53:23.931Z,40.31
2022-08-12T05:55:54.649Z,40.31
2022-08-12T05:58:22.633Z,40.59
2022-08-12T06:00:50.599Z,40.34
2022-08-12T06:03:19.448Z,40.10
2022-08-12T06:05:54.588Z,40.42
2022-08-12T06:08:26.657Z,40.19
2022-08-12T06:10:57.162Z,40.43
2022-08-12T06:13:28.460Z,40.42
2022-08-12T06:16:15.328Z,40.24
2022-08-12T06:18:44.393Z,40.24
2022-08-12T06:21:14.926Z,40.14
2022-08-12T06:23:45.372Z,40.09
2022-08-12T06:26:15.573Z,40.16
2022-08-12T06:28:44.221Z,40.21
2022-08-12T06:31:32.114Z,39.83
2022-08-12T06:35:24.277Z,40.09
2022-08-12T06:36:48.532Z,40.15
2022-08-12T06:39:18.806Z,40.00
2022-08-12T06:42:32.123Z,40.27
2022-08-12T06:44:52.538Z,40.42
2022-08-12T06:47:22.166Z,40.21
2022-08-12T06:49:50.240Z,40.10
2022-08-12T06:52:19.302Z,40.34
2022-08-12T06:54:48.741Z,40.14
2022-08-12T06:58:06.256Z,40.11
2022-08-12T07:00:06.781Z,40.25
2022-08-12T07:02:37.221Z,40.51
2022-08-12T07:05:05.822Z,40.39
2022-08-12T07:07:33.784Z,40.60
2022-08-12T07:10:06.399Z,40.62
2022-08-12T07:12:36.066Z,40.77
2022-08-12T07:15:04.307Z,40.35
2022-08-12T07:17:36.439Z,40.58
2022-08-12T07:20:07.018Z,40.47
2022-08-12T07:22:35.183Z,40.62
2022-08-12T07:25:22.185Z,40.40
2022-08-12T07:27:54.833Z,40.35
2022-08-12T07:30:24.140Z,40.43
2022-08-12T07:32:52.609Z,40.51
2022-08-12T07:35:20.785Z,40.16
2022-08-12T07:37:50.581Z,40.13
2022-08-12T07:40:20.784Z,40.08
2022-08-12T07:42:49.632Z,40.34
2022-08-12T07:45:18.010Z,39.89
2022-08-12T07:47:46.025Z,40.10
2022-08-12T07:50:20.063Z,39.93
2022-08-12T07:52:51.055Z,40.18
2022-08-12T07:55:20.410Z,39.94
2022-08-12T07:57:58.010Z,39.81
2022-08-12T08:00:28.282Z,40.10
2022-08-12T08:02:56.372Z,40.08
2022-08-12T08:05:26.353Z,40.27
2022-08-12T08:07:55.623Z,40.44
2022-08-12T08:10:26.257Z,40.36
2022-08-12T08:12:58.610Z,40.30
2022-08-12T08:15:51.221Z,40.29
2022-08-12T08:18:25.877Z,40.30
2022-08-12T08:20:57.372Z,40.46
2022-08-12T08:23:56.387Z,40.47
2022-08-12T08:26:27.515Z,40.58
2022-08-12T08:28:55.533Z,40.52
2022-08-12T08:31:23.547Z,40.59
2022-08-12T08:34:05.181Z,40.41
2022-08-12T08:36:40.262Z,40.56
2022-08-12T08:39:11.679Z,40.46
2022-08-12T08:42:17.737Z,40.44
2022-08-12T08:44:46.958Z,40.59
2022-08-12T08:47:17.843Z,40.62
2022-08-12T08:49:45.800Z,40.44
2022-08-12T08:52:13.762Z,40.53
2022-08-12T08:55:01.725Z,40.45
2022-08-12T08:57:44.067Z,40.39
2022-08-12T09:00:17.422Z,40.46
2022-08-12T09:02:49.046Z,40.39
2022-08-12T09:05:26.578Z,40.64
2022-08-12T09:08:12.166Z,40.55
2022-08-12T09:10:45.285Z,40.51
2022-08-12T09:16:23.443Z,40.35
2022-08-12T09:21:54.130Z,40.52
2022-08-12T09:24:23.134Z,40.39
2022-08-12T09:26:55.995Z,40.37
2022-08-12T09:30:09.908Z,40.45
2022-08-12T09:32:56.562Z,40.35
2022-08-12T09:35:22.228Z,40.34
2022-08-12T09:37:57.713Z,40.25
2022-08-12T09:41:01.710Z,40.22
2022-08-12T09:43:34.570Z,40.32
2022-08-12T09:46:12.008Z,40.20
2022-08-12T09:48:56.315Z,40.24
2022-08-12T09:51:37.941Z,40.20
2022-08-12T09:54:32.826Z,40.21
2022-08-12T09:58:07.015Z,40.26
2022-08-12T10:00:15.816Z,40.51
2022-08-12T10:03:00.244Z,40.54
2022-08-12T10:06:26.775Z,41.36
2022-08-12T10:08:22.004Z,41.56
2022-08-12T10:11:08.974Z,41.51
2022-08-12T10:13:47.073Z,41.63
2022-08-12T10:16:22.170Z,41.82
2022-08-12T10:18:54.670Z,41.92
2022-08-12T10:21:35.432Z,42.05
2022-08-12T10:24:06.057Z,41.98
2022-08-12T10:26:53.085Z,42.24
2022-08-12T10:30:02.083Z,42.04
2022-08-12T10:32:44.401Z,41.89
2022-08-12T10:35:16.935Z,41.62
2022-08-12T10:38:36.133Z,41.81
2022-08-12T10:40:55.366Z,41.63
2022-08-12T10:43:55.542Z,41.51
2022-08-12T10:46:31.129Z,41.52
2022-08-12T10:49:06.464Z,41.40
2022-08-12T10:52:33.189Z,41.64
2022-08-12T10:54:40.789Z,41.51
2022-08-12T10:57:18.386Z,41.52
2022-08-12T11:00:30.265Z,41.43
2022-08-12T11:04:31.479Z,41.72
2022-08-12T11:07:05.441Z,41.80
2022-08-12T11:08:42.229Z,41.61
2022-08-12T11:11:17.939Z,41.40
2022-08-12T11:14:05.962Z,41.48
2022-08-12T11:16:35.572Z,41.40
2022-08-12T11:19:05.419Z,41.65
2022-08-12T11:21:58.397Z,41.84
2022-08-12T11:24:32.038Z,41.76
2022-08-12T11:27:07.976Z,41.65
2022-08-12T11:30:02.019Z,41.72
2022-08-12T11:32:27.713Z,41.71
2022-08-12T11:34:55.772Z,41.67
2022-08-12T11:37:27.554Z,41.54
2022-08-12T11:42:35.882Z,41.49
2022-08-12T11:45:10.488Z,41.60
2022-08-12T11:47:40.375Z,41.62
2022-08-12T11:50:11.821Z,41.49
2022-08-12T11:52:55.603Z,41.55
2022-08-12T11:55:29.543Z,41.54
2022-08-12T11:58:51.133Z,41.45
2022-08-12T12:03:43.706Z,41.32
2022-08-12T12:06:16.964Z,41.41
2022-08-12T12:08:50.987Z,41.40
2022-08-12T12:11:22.653Z,41.34
2022-08-12T12:14:06.369Z,41.35
2022-08-12T12:16:39.962Z,41.35
2022-08-12T12:19:10.636Z,41.47
2022-08-12T12:21:47.522Z,41.33
2022-08-12T12:24:20.947Z,41.37
2022-08-12T12:27:00.473Z,41.25
2022-08-12T12:30:19.122Z,41.04
2022-08-12T12:32:18.380Z,41.14
2022-08-12T12:35:14.619Z,41.09
2022-08-12T12:38:04.436Z,41.28
2022-08-12T12:40:30.029Z,41.26
2022-08-12T12:43:05.066Z,41.21
2022-08-12T12:45:35.529Z,41.19
2022-08-12T12:48:07.968Z,41.12
2022-08-12T12:50:42.528Z,41.21
2022-08-12T12:54:06.286Z,41.19
2022-08-12T12:56:13.489Z,41.10
2022-08-12T12:58:43.868Z,41.06
2022-08-12T13:01:27.779Z,41.05
2022-08-12T13:04:02.524Z,41.01
2022-08-12T13:06:32.382Z,40.92
2022-08-12T13:09:03.811Z,40.48
2022-08-12T13:11:40.681Z,40.65
2022-08-12T13:14:28.788Z,40.64
2022-08-12T13:17:02.359Z,40.82
2022-08-12T13:19:38.769Z,40.85
2022-08-12T13:22:19.906Z,40.68
2022-08-12T13:24:54.759Z,39.92
2022-08-12T13:27:34.710Z,40.31
2022-08-12T13:30:10.661Z,40.47
2022-08-12T13:32:40.597Z,40.35
2022-08-12T13:35:19.306Z,40.44
2022-08-12T13:37:59.355Z,38.92
2022-08-12T13:40:32.963Z,39.75
2022-08-12T13:43:02.624Z,39.93
2022-08-12T13:45:36.796Z,39.97
2022-08-12T13:48:07.777Z,39.87
2022-08-12T13:50:39.517Z,39.81
2022-08-12T13:53:24.479Z,39.72
2022-08-12T13:55:59.475Z,39.52
2022-08-12T13:58:33.199Z,39.75
2022-08-12T14:01:06.385Z,39.60
2022-08-12T14:03:51.567Z,37.88
2022-08-12T14:06:20.845Z,37.93
2022-08-12T14:08:49.610Z,37.93
2022-08-12T14:11:18.280Z,36.99
2022-08-12T14:14:04.234Z,36.17
2022-08-12T14:16:48.414Z,35.22
2022-08-12T14:19:23.326Z,34.53
2022-08-12T14:22:00.581Z,33.99
2022-08-12T14:24:40.366Z,33.50
2022-08-12T14:27:11.274Z,32.94
2022-08-12T14:30:06.253Z,32.67
2022-08-12T14:32:35.505Z,32.59
2022-08-12T14:35:06.560Z,33.43
2022-08-12T14:37:56.605Z,33.14
2022-08-12T14:40:28.454Z,33.16
2022-08-12T14:42:57.613Z,33.60
2022-08-12T14:45:45.077Z,33.24
2022-08-12T14:48:18.538Z,33.40
2022-08-12T14:52:15.962Z,33.99
2022-08-12T14:59:56.501Z,33.93
2022-08-12T15:02:21.181Z,34.48
2022-08-12T15:04:55.922Z,34.83
2022-08-12T15:07:32.728Z,35.23
2022-08-12T15:10:02.471Z,35.74
2022-08-12T15:12:33.198Z,36.34
2022-08-12T15:15:01.253Z,36.54
2022-08-12T15:17:38.021Z,36.68
2022-08-12T15:20:30.839Z,37.08
2022-08-12T15:22:58.803Z,37.51
2022-08-12T15:25:27.216Z,37.28
2022-08-12T15:28:05.498Z,37.63
2022-08-12T15:30:37.261Z,37.65
2022-08-12T15:33:14.876Z,37.40
2022-08-12T15:35:52.173Z,37.52
2022-08-12T15:38:25.247Z,37.57
2022-08-12T15:40:55.602Z,37.29
2022-08-12T15:43:35.479Z,37.48
2022-08-12T15:46:15.046Z,37.11
2022-08-12T15:48:46.517Z,35.62
2022-08-12T15:51:57.325Z,36.68
2022-08-12T15:54:34.995Z,37.06
2022-08-12T15:57:08.102Z,37.25
2022-08-12T16:00:04.403Z,37.66
2022-08-12T16:02:26.958Z,38.11
2022-08-12T16:04:55.453Z,38.18
2022-08-12T16:07:25.925Z,39.25
2022-08-12T16:10:05.795Z,39.74
2022-08-12T16:12:42.072Z,40.41
2022-08-12T16:15:13.310Z,40.78
2022-08-12T16:18:15.189Z,40.92
2022-08-12T16:20:33.127Z,41.03
2022-08-12T16:23:35.852Z,41.17
2022-08-12T16:26:06.351Z,41.34
2022-08-12T16:28:43.816Z,41.47
2022-08-12T16:31:18.566Z,41.33
2022-08-12T16:33:59.207Z,41.43
2022-08-12T16:36:29.735Z,41.56
2022-08-12T16:39:01.685Z,41.88
2022-08-12T16:41:39.665Z,41.75
2022-08-12T16:44:08.857Z,41.69
2022-08-12T16:46:37.452Z,41.74
2022-08-12T16:49:13.446Z,41.75
2022-08-12T16:51:46.434Z,41.90
2022-08-12T16:54:18.515Z,41.84
2022-08-12T16:56:54.905Z,41.74
2022-08-12T16:59:30.817Z,41.88
2022-08-12T17:02:31.231Z,41.88
2022-08-12T17:05:04.685Z,41.71
2022-08-12T17:07:36.523Z,42.01
2022-08-12T17:10:08.418Z,41.82
2022-08-12T17:12:37.675Z,41.90
2022-08-12T17:15:41.310Z,42.19
2022-08-12T17:18:15.216Z,41.86
2022-08-12T17:20:47.666Z,41.96
2022-08-12T17:23:16.998Z,42.06
2022-08-12T17:25:48.917Z,41.84
2022-08-12T17:28:19.501Z,41.82
2022-08-12T17:30:57.234Z,41.76
2022-08-12T17:33:33.708Z,41.92
2022-08-12T17:36:05.795Z,41.97
2022-08-12T17:38:35.705Z,41.87
2022-08-12T17:41:23.199Z,41.84
2022-08-12T17:43:58.909Z,41.76
2022-08-12T17:46:33.381Z,41.82
2022-08-12T17:49:06.608Z,41.68
2022-08-12T17:52:02.352Z,41.59
2022-08-12T17:54:31.748Z,41.69
2022-08-12T17:57:16.295Z,41.77
2022-08-12T17:59:47.625Z,41.68
2022-08-12T18:02:22.594Z,41.74
2022-08-12T18:05:04.915Z,41.84
2022-08-12T18:07:36.001Z,41.91
2022-08-12T18:10:04.978Z,41.83
2022-08-12T18:12:38.400Z,41.88
2022-08-12T18:15:11.490Z,41.83
2022-08-12T18:18:00.075Z,42.06
2022-08-12T18:20:28.777Z,41.98
2022-08-12T18:22:59.596Z,42.16
2022-08-12T18:26:15.454Z,41.86
2022-08-12T18:28:43.102Z,41.95
2022-08-12T18:31:13.554Z,41.97
2022-08-12T18:33:45.821Z,41.76
2022-08-12T18:36:22.113Z,41.87
2022-08-12T18:38:53.159Z,42.00
2022-08-12T18:41:30.662Z,42.02
2022-08-12T18:44:08.091Z,42.00
2022-08-12T18:46:54.034Z,41.90
2022-08-12T18:49:29.695Z,41.98
2022-08-12T18:52:04.593Z,41.94
2022-08-12T18:54:35.897Z,41.99
2022-08-12T18:57:19.260Z,41.99
2022-08-12T19:00:06.507Z,41.92
2022-08-12T19:02:39.854Z,42.01
2022-08-12T19:05:11.368Z,41.99
2022-08-12T19:08:00.233Z,41.88
2022-08-12T19:10:31.035Z,42.04
2022-08-12T19:13:24.294Z,42.15
2022-08-12T19:15:57.993Z,41.91
2022-08-12T19:18:31.877Z,42.04
2022-08-12T19:21:11.621Z,41.95
2022-08-12T19:23:40.559Z,42.23
2022-08-12T19:26:10.868Z,41.93
2022-08-12T19:28:40.813Z,42.04
2022-08-12T19:31:56.328Z,42.00
2022-08-12T19:37:27.177Z,42.40
2022-08-12T19:40:09.629Z,42.12
2022-08-12T19:42:44.901Z,42.15
2022-08-12T19:45:17.486Z,41.99
2022-08-12T19:47:47.010Z,42.25
2022-08-12T19:50:19.852Z,42.23
2022-08-12T19:52:51.019Z,42.12
2022-08-12T19:55:21.790Z,41.99
2022-08-12T19:58:01.365Z,42.15
2022-08-12T20:00:30.953Z,42.19
2022-08-12T20:03:00.764Z,42.17
2022-08-12T20:06:04.523Z,42.24
2022-08-12T20:08:31.678Z,42.48
2022-08-12T20:12:11.623Z,42.22
2022-08-12T20:14:00.438Z,42.39
2022-08-12T20:16:57.638Z,42.47
2022-08-12T20:19:52.731Z,42.44
2022-08-12T20:22:23.853Z,42.46
2022-08-12T20:24:55.188Z,42.50
2022-08-12T20:27:29.411Z,42.54
2022-08-12T20:30:15.242Z,42.53
2022-08-12T20:32:54.025Z,42.34
2022-08-12T20:35:25.220Z,42.60
2022-08-12T20:38:26.384Z,42.69
2022-08-12T20:40:55.743Z,42.53
2022-08-12T20:43:28.330Z,42.47
2022-08-12T20:46:00.128Z,42.58
2022-08-12T20:48:28.763Z,42.26
2022-08-12T20:51:04.643Z,42.42
2022-08-12T20:53:57.792Z,42.48
2022-08-12T20:56:31.066Z,42.45
2022-08-12T20:59:01.106Z,42.50
2022-08-12T21:01:46.176Z,42.60
2022-08-12T21:04:32.744Z,42.46
2022-08-12T21:07:08.476Z,42.35
2022-08-12T21:09:42.476Z,42.56
2022-08-12T21:12:28.262Z,42.45
2022-08-12T21:15:23.540Z,42.64
2022-08-12T21:18:10.787Z,42.90
2022-08-12T21:20:52.558Z,42.72
2022-08-12T21:23:22.930Z,42.67
2022-08-12T21:25:52.592Z,42.58
2022-08-12T21:28:27.607Z,42.79
2022-08-12T21:32:34.795Z,42.67
2022-08-12T21:34:08.917Z,42.81
2022-08-12T21:36:40.177Z,42.96
2022-08-12T21:39:20.892Z,42.90
2022-08-12T21:41:52.062Z,42.99
2022-08-12T21:44:24.808Z,42.99
2022-08-12T21:47:20.839Z,42.90
2022-08-12T21:50:04.052Z,43.16
2022-08-12T21:52:36.688Z,43.14
2022-08-12T21:55:18.249Z,42.96
2022-08-12T21:57:53.196Z,43.36
2022-08-12T22:00:24.015Z,43.44
2022-08-12T22:04:01.347Z,43.50
2022-08-12T22:06:31.463Z,43.75
2022-08-12T22:09:15.285Z,43.64
2022-08-12T22:11:56.342Z,43.76
2022-08-12T22:14:28.514Z,43.72
2022-08-12T22:16:58.272Z,43.91
2022-08-12T22:19:26.794Z,43.62
2022-08-12T22:21:58.716Z,43.83
2022-08-12T22:24:29.844Z,44.11
2022-08-12T22:27:11.904Z,44.05
2022-08-12T22:30:06.865Z,44.00
2022-08-12T22:32:36.573Z,44.31
2022-08-12T22:35:28.980Z,44.49
2022-08-12T22:38:10.933Z,44.25
2022-08-12T22:40:39.561Z,44.75
2022-08-12T22:43:30.894Z,44.73
2022-08-12T22:46:17.356Z,44.53
2022-08-12T22:48:50.574Z,44.67
2022-08-12T22:51:24.070Z,44.66
2022-08-12T22:53:54.712Z,44.62
2022-08-12T22:56:30.914Z,45.03
2022-08-12T22:59:02.638Z,45.08
2022-08-12T23:01:52.420Z,44.91
2022-08-12T23:04:27.652Z,45.10
2022-08-12T23:07:05.512Z,44.92
2022-08-12T23:09:48.404Z,45.11
2022-08-12T23:12:41.202Z,44.70
2022-08-12T23:15:15.659Z,45.17
2022-08-12T23:17:45.966Z,44.96
2022-08-12T23:20:15.113Z,44.94
2022-08-12T23:22:43.887Z,45.18
2022-08-12T23:25:32.527Z,45.09
2022-08-12T23:28:31.176Z,45.35
2022-08-12T23:31:04.545Z,45.40
2022-08-12T23:34:02.232Z,45.26
2022-08-12T23:36:39.150Z,45.33
2022-08-12T23:40:15.744Z,45.01
2022-08-12T23:42:18.105Z,45.31
2022-08-12T23:44:48.412Z,45.16
2022-08-12T23:47:22.814Z,45.23
2022-08-12T23:49:57.634Z,45.51
2022-08-12T23:52:34.445Z,45.29
2022-08-12T23:55:24.831Z,45.54
2022-08-12T23:58:21.277Z,45.50
